createdAt,value
2019-02-05T00:00:44.627Z,-6.50
2019-02-05T00:03:16.577Z,-6.60
2019-02-05T00:05:56.312Z,-6.70
2019-02-05T00:08:27.946Z,-6.80
2019-02-05T00:11:07.308Z,-6.90
2019-02-05T00:13:46.263Z,-7.10
2019-02-05T00:16:16.364Z,-7.30
2019-02-05T00:18:48.092Z,-7.60
2019-02-05T00:21:22.671Z,-7.70
2019-02-05T00:23:59.665Z,-7.80
2019-02-05T00:26:30.762Z,-7.70
2019-02-05T00:29:02.390Z,-7.60
2019-02-05T00:31:33.517Z,-7.60
2019-02-05T00:34:03.671Z,-7.70
2019-02-05T00:36:35.767Z,-7.70
2019-02-05T00:39:18.039Z,-7.70
2019-02-05T00:41:48.351Z,-7.50
2019-02-05T00:44:24.347Z,-7.40
2019-02-05T00:46:56.415Z,-7.50
2019-02-05T00:49:33.503Z,-7.50
2019-02-05T00:52:06.851Z,-7.60
2019-02-05T00:54:37.124Z,-7.60
2019-02-05T00:57:08.171Z,-7.60
2019-02-05T00:59:40.219Z,-7.70
2019-02-05T01:02:17.524Z,-7.70
2019-02-05T01:04:47.683Z,-7.60
2019-02-05T01:07:19.319Z,-7.60
2019-02-05T01:09:50.331Z,-7.70
2019-02-05T01:12:20.431Z,-7.80
2019-02-05T01:14:53.515Z,-7.80
2019-02-05T01:17:26.523Z,-8.00
2019-02-05T01:19:59.799Z,-8.10
2019-02-05T01:22:29.895Z,-8.10
2019-02-05T01:25:02.017Z,-8.10
2019-02-05T01:27:32.117Z,-8.00
2019-02-05T01:30:18.743Z,-7.80
2019-02-05T01:32:55.675Z,-7.70
2019-02-05T01:35:25.851Z,-7.40
2019-02-05T01:38:01.775Z,-7.20
2019-02-05T01:40:38.507Z,-7.10
2019-02-05T01:43:15.439Z,-6.90
2019-02-05T01:45:45.516Z,-6.80
2019-02-05T01:48:15.607Z,-6.80
2019-02-05T01:50:45.883Z,-6.70
2019-02-05T01:53:16.043Z,-6.60
2019-02-05T01:55:48.061Z,-6.50
2019-02-05T01:58:19.131Z,-6.50
2019-02-05T02:00:51.163Z,-6.40
2019-02-05T02:03:27.223Z,-6.30
2019-02-05T02:05:57.353Z,-6.20
2019-02-05T02:08:28.447Z,-6.20
2019-02-05T02:10:59.543Z,-6.20
2019-02-05T02:13:30.591Z,-6.20
2019-02-05T02:16:06.719Z,-6.20
2019-02-05T02:18:39.468Z,-6.20
2019-02-05T02:21:10.816Z,-6.10
2019-02-05T02:23:49.467Z,-6.10
2019-02-05T02:26:19.555Z,-6.00
2019-02-05T02:28:50.699Z,-6.00
2019-02-05T02:31:21.763Z,-5.90
2019-02-05T02:33:54.988Z,-5.90
2019-02-05T02:36:25.079Z,-5.90
2019-02-05T02:38:55.205Z,-5.80
2019-02-05T02:41:25.291Z,-5.80
2019-02-05T02:43:56.168Z,-5.80
2019-02-05T02:46:29.759Z,-5.80
2019-02-05T02:48:59.868Z,-5.90
2019-02-05T02:51:29.973Z,-6.00
2019-02-05T02:54:01.136Z,-5.90
2019-02-05T02:56:33.199Z,-5.90
2019-02-05T02:59:04.621Z,-5.90
2019-02-05T03:01:35.927Z,-5.80
2019-02-05T03:04:06.176Z,-5.80
2019-02-05T03:06:37.461Z,-5.70
2019-02-05T03:09:09.532Z,-5.60
2019-02-05T03:12:02.021Z,-5.60
2019-02-05T03:14:34.061Z,-5.50
2019-02-05T03:17:05.232Z,-5.50
2019-02-05T03:19:35.350Z,-5.40
2019-02-05T03:22:14.564Z,-5.40
2019-02-05T03:24:44.664Z,-5.30
2019-02-05T03:27:18.299Z,-5.30
2019-02-05T03:29:49.402Z,-5.40
2019-02-05T03:32:21.461Z,-5.40
2019-02-05T03:35:09.666Z,-5.40
2019-02-05T03:37:40.731Z,-5.40
2019-02-05T03:40:30.637Z,-5.40
2019-02-05T03:43:01.725Z,-5.40
2019-02-05T03:45:33.544Z,-5.50
2019-02-05T03:48:04.856Z,-5.40
2019-02-05T03:50:49.200Z,-5.40
2019-02-05T03:53:42.900Z,-5.40
2019-02-05T03:57:00.183Z,-5.40
2019-02-05T04:00:13.952Z,-5.30
2019-02-05T04:03:12.356Z,-5.40
2019-02-05T04:05:55.588Z,-5.30
2019-02-05T04:08:51.513Z,-5.30
2019-02-05T04:11:44.411Z,-5.30
2019-02-05T04:14:31.821Z,-5.30
2019-02-05T04:17:18.021Z,-5.20
2019-02-05T04:20:12.392Z,-5.10
2019-02-05T04:23:17.705Z,-5.10
2019-02-05T04:26:26.851Z,-5.00
2019-02-05T04:29:09.591Z,-5.00
2019-02-05T04:31:48.331Z,-4.90
2019-02-05T04:34:37.803Z,-4.90
2019-02-05T04:38:02.558Z,-4.90
2019-02-05T04:40:40.090Z,-5.00
2019-02-05T04:43:34.948Z,-5.00
2019-02-05T04:46:23.096Z,-5.00
2019-02-05T04:49:03.448Z,-4.90
2019-02-05T04:52:05.399Z,-4.90
2019-02-05T04:54:54.734Z,-4.90
2019-02-05T04:57:43.015Z,-4.90
2019-02-05T05:00:46.258Z,-4.90
2019-02-05T05:03:43.596Z,-4.90
2019-02-05T05:06:45.723Z,-4.90
2019-02-05T05:09:40.180Z,-4.90
2019-02-05T05:12:12.343Z,-5.00
2019-02-05T05:15:02.317Z,-4.90
2019-02-05T05:17:38.203Z,-4.90
2019-02-05T05:20:14.888Z,-4.90
2019-02-05T05:22:45.384Z,-4.90
2019-02-05T05:25:20.817Z,-4.80
2019-02-05T05:27:55.532Z,-4.70
2019-02-05T05:30:29.799Z,-4.70
2019-02-05T05:33:06.127Z,-4.70
2019-02-05T05:35:43.909Z,-4.70
2019-02-05T05:38:16.844Z,-4.70
2019-02-05T05:40:46.950Z,-4.70
2019-02-05T05:43:18.577Z,-4.70
2019-02-05T05:45:51.908Z,-4.70
2019-02-05T05:48:22.955Z,-4.60
2019-02-05T05:50:55.227Z,-4.60
2019-02-05T05:53:32.295Z,-4.60
2019-02-05T05:56:04.428Z,-4.50
2019-02-05T05:58:38.785Z,-4.60
2019-02-05T06:01:08.891Z,-4.60
2019-02-05T06:03:40.998Z,-4.60
2019-02-05T06:06:18.164Z,-4.60
2019-02-05T06:08:51.242Z,-4.60
2019-02-05T06:11:22.685Z,-4.50
2019-02-05T06:13:59.025Z,-4.40
2019-02-05T06:16:29.116Z,-4.40
2019-02-05T06:19:02.841Z,-4.40
2019-02-05T06:21:34.007Z,-4.50
2019-02-05T06:24:10.284Z,-4.50
2019-02-05T06:26:40.549Z,-4.60
2019-02-05T06:29:10.744Z,-4.60
2019-02-05T06:31:40.855Z,-4.60
2019-02-05T06:34:11.030Z,-4.60
2019-02-05T06:36:42.124Z,-4.60
2019-02-05T06:39:12.228Z,-4.50
2019-02-05T06:41:59.492Z,-4.60
2019-02-05T06:44:30.579Z,-4.50
2019-02-05T06:47:00.735Z,-4.50
2019-02-05T06:49:30.829Z,-4.50
2019-02-05T06:52:04.432Z,-4.40
2019-02-05T06:54:39.196Z,-4.50
2019-02-05T06:57:14.386Z,-4.40
2019-02-05T06:59:48.643Z,-4.40
2019-02-05T07:02:19.828Z,-4.40
2019-02-05T07:04:53.045Z,-4.40
2019-02-05T07:07:23.196Z,-4.40
2019-02-05T07:09:53.308Z,-4.40
2019-02-05T07:12:23.420Z,-4.40
2019-02-05T07:14:58.673Z,-4.40
2019-02-05T07:17:33.445Z,-4.30
2019-02-05T07:20:17.919Z,-4.30
2019-02-05T07:22:48.105Z,-4.30
2019-02-05T07:25:27.808Z,-4.30
2019-02-05T07:28:08.724Z,-4.20
2019-02-05T07:30:40.469Z,-4.20
2019-02-05T07:33:12.464Z,-4.20
2019-02-05T07:35:42.731Z,-4.10
2019-02-05T07:38:13.488Z,-4.10
2019-02-05T07:40:45.564Z,-3.90
2019-02-05T07:43:19.036Z,-3.90
2019-02-05T07:45:52.108Z,-3.90
2019-02-05T07:48:22.228Z,-3.80
2019-02-05T07:50:52.468Z,-3.70
2019-02-05T07:53:22.568Z,-3.70
2019-02-05T07:55:53.572Z,-3.60
2019-02-05T07:58:23.664Z,-3.60
2019-02-05T08:00:55.780Z,-3.50
2019-02-05T08:03:25.880Z,-3.40
2019-02-05T08:05:56.150Z,-3.40
2019-02-05T08:08:28.193Z,-3.30
2019-02-05T08:11:05.128Z,-3.10
2019-02-05T08:13:40.180Z,-3.00
2019-02-05T08:16:14.352Z,-2.80
2019-02-05T08:18:47.048Z,-2.80
2019-02-05T08:21:17.153Z,-2.80
2019-02-05T08:23:47.237Z,-2.70
2019-02-05T08:26:17.358Z,-2.70
2019-02-05T08:28:53.592Z,-2.80
2019-02-05T08:31:23.681Z,-2.70
2019-02-05T08:33:59.548Z,-2.70
2019-02-05T08:36:29.657Z,-2.60
2019-02-05T08:39:00.710Z,-2.60
2019-02-05T08:41:30.804Z,-2.50
2019-02-05T08:44:00.904Z,-2.30
2019-02-05T08:46:34.544Z,-2.20
2019-02-05T08:49:06.639Z,-2.10
2019-02-05T08:51:38.644Z,-1.90
2019-02-05T08:54:10.652Z,-2.00
2019-02-05T08:56:44.884Z,-2.00
2019-02-05T08:59:15.004Z,-1.90
2019-02-05T09:01:45.100Z,-1.80
2019-02-05T09:04:15.195Z,-1.90
2019-02-05T09:06:45.296Z,-2.00
2019-02-05T09:09:16.276Z,-2.00
2019-02-05T09:11:46.457Z,-1.80
2019-02-05T09:14:16.552Z,-1.70
2019-02-05T09:16:46.882Z,-1.70
2019-02-05T09:19:17.002Z,-1.60
2019-02-05T09:21:47.182Z,-1.80
2019-02-05T09:24:17.296Z,-1.70
2019-02-05T09:26:48.328Z,-1.60
2019-02-05T09:29:18.428Z,-1.70
2019-02-05T09:31:48.629Z,-1.80
2019-02-05T09:34:18.705Z,-1.80
2019-02-05T09:36:48.808Z,-1.80
2019-02-05T09:39:18.926Z,-2.00
2019-02-05T09:41:49.021Z,-2.10
2019-02-05T09:44:19.108Z,-2.10
2019-02-05T09:46:49.373Z,-2.20
2019-02-05T09:49:19.501Z,-2.20
2019-02-05T09:51:49.599Z,-2.10
2019-02-05T09:54:19.687Z,-2.30
2019-02-05T09:56:49.808Z,-2.20
2019-02-05T09:59:19.893Z,-2.10
2019-02-05T10:01:50.160Z,-2.00
2019-02-05T10:04:20.248Z,-1.60
2019-02-05T10:06:50.922Z,-1.40
2019-02-05T10:09:21.028Z,-1.40
2019-02-05T10:11:51.120Z,-1.30
2019-02-05T10:14:22.116Z,-1.20
2019-02-05T10:16:52.968Z,-1.20
2019-02-05T10:19:23.571Z,-1.20
2019-02-05T10:21:53.625Z,-1.00
2019-02-05T10:24:23.780Z,-0.90
2019-02-05T10:26:54.898Z,-0.80
2019-02-05T10:29:25.017Z,-0.40
2019-02-05T10:31:55.396Z,-0.10
2019-02-05T10:34:34.259Z,0.10
2019-02-05T10:37:01.080Z,0.10
2019-02-05T10:39:31.160Z,0.10
2019-02-05T10:42:03.160Z,-0.10
2019-02-05T10:44:33.252Z,-0.30
2019-02-05T10:47:04.496Z,-0.20
2019-02-05T10:49:34.597Z,-0.20
2019-02-05T10:52:04.841Z,-0.30
2019-02-05T10:54:36.945Z,-0.50
2019-02-05T10:57:07.968Z,-0.80
2019-02-05T10:59:38.240Z,-0.80
2019-02-05T11:02:08.840Z,-0.70
2019-02-05T11:04:38.976Z,-0.40
2019-02-05T11:07:09.072Z,-0.40
2019-02-05T11:09:39.176Z,-0.60
2019-02-05T11:12:09.264Z,-0.60
2019-02-05T11:14:39.552Z,-0.50
2019-02-05T11:17:09.640Z,-0.30
2019-02-05T11:19:39.744Z,-0.10
2019-02-05T11:22:09.829Z,0.10
2019-02-05T11:24:40.013Z,0.20
2019-02-05T11:27:10.696Z,0.20
2019-02-05T11:29:50.684Z,0.00
2019-02-05T11:32:21.793Z,-0.20
2019-02-05T11:34:51.831Z,0.00
2019-02-05T11:37:21.916Z,-0.10
2019-02-05T11:39:52.984Z,-0.30
2019-02-05T11:42:23.099Z,-0.20
2019-02-05T11:45:14.444Z,0.10
2019-02-05T11:47:51.358Z,0.60
2019-02-05T11:50:21.972Z,1.10
2019-02-05T11:52:56.676Z,1.20
2019-02-05T11:55:47.910Z,1.20
2019-02-05T11:58:17.972Z,1.50
2019-02-05T12:00:49.757Z,1.80
2019-02-05T12:03:21.371Z,1.90
2019-02-05T12:06:09.809Z,1.80
2019-02-05T12:08:39.922Z,1.80
2019-02-05T12:11:10.013Z,1.60
2019-02-05T12:13:46.152Z,1.50
2019-02-05T12:16:16.301Z,1.60
2019-02-05T12:18:46.967Z,1.10
2019-02-05T12:21:18.770Z,1.20
2019-02-05T12:23:49.102Z,1.40
2019-02-05T12:26:19.200Z,1.70
2019-02-05T12:28:49.557Z,1.60
2019-02-05T12:31:19.706Z,1.30
2019-02-05T12:33:49.876Z,0.90
2019-02-05T12:36:19.969Z,0.70
2019-02-05T12:38:50.956Z,0.40
2019-02-05T12:41:21.049Z,0.30
2019-02-05T12:43:53.372Z,0.60
2019-02-05T12:46:24.439Z,0.80
2019-02-05T12:48:55.476Z,1.10
2019-02-05T12:51:34.753Z,1.40
2019-02-05T12:54:06.360Z,1.60
2019-02-05T12:56:36.525Z,1.90
2019-02-05T12:59:08.689Z,2.10
2019-02-05T13:01:38.832Z,1.50
2019-02-05T13:04:09.000Z,1.10
2019-02-05T13:06:40.024Z,0.90
2019-02-05T13:09:11.684Z,1.20
2019-02-05T13:11:47.528Z,1.30
2019-02-05T13:14:23.431Z,1.50
2019-02-05T13:16:54.372Z,1.30
2019-02-05T13:19:24.477Z,1.10
2019-02-05T13:21:54.563Z,1.20
2019-02-05T13:24:25.600Z,1.10
2019-02-05T13:26:55.697Z,0.80
2019-02-05T13:29:28.969Z,0.80
2019-02-05T13:32:01.883Z,0.70
2019-02-05T13:34:32.967Z,0.30
2019-02-05T13:37:14.260Z,-0.10
2019-02-05T13:39:44.350Z,-0.20
2019-02-05T13:42:21.293Z,0.10
2019-02-05T13:44:51.343Z,0.40
2019-02-05T13:47:24.599Z,0.40
2019-02-05T13:49:54.993Z,0.30
2019-02-05T13:52:26.000Z,-0.30
2019-02-05T13:54:56.344Z,-0.60
2019-02-05T13:57:29.886Z,-0.60
2019-02-05T14:00:21.201Z,-0.50
2019-02-05T14:02:55.929Z,-0.40
2019-02-05T14:05:26.333Z,-0.20
2019-02-05T14:07:57.561Z,-0.20
2019-02-05T14:10:39.461Z,-0.10
2019-02-05T14:13:09.546Z,-0.30
2019-02-05T14:15:49.837Z,-0.40
2019-02-05T14:18:22.688Z,-0.50
2019-02-05T14:20:52.585Z,-0.40
2019-02-05T14:23:22.649Z,-0.40
2019-02-05T14:25:52.760Z,-0.50
2019-02-05T14:28:22.871Z,-0.50
2019-02-05T14:30:55.832Z,-0.50
2019-02-05T14:33:27.910Z,-0.50
2019-02-05T14:35:57.992Z,-0.50
2019-02-05T14:38:37.279Z,-0.50
2019-02-05T14:41:07.639Z,-0.50
2019-02-05T14:43:37.785Z,-0.80
2019-02-05T14:46:08.012Z,-0.90
2019-02-05T14:48:38.156Z,-1.00
2019-02-05T14:51:08.232Z,-1.10
2019-02-05T14:53:38.320Z,-1.20
2019-02-05T14:56:08.437Z,-1.30
2019-02-05T14:58:38.570Z,-1.20
2019-02-05T15:01:08.643Z,-1.20
2019-02-05T15:03:41.852Z,-1.30
2019-02-05T15:06:11.941Z,-1.40
2019-02-05T15:08:47.140Z,-1.40
2019-02-05T15:11:17.232Z,-1.40
2019-02-05T15:13:47.326Z,-1.50
2019-02-05T15:16:17.418Z,-1.50
2019-02-05T15:18:48.485Z,-1.50
2019-02-05T15:21:20.657Z,-1.50
2019-02-05T15:23:57.005Z,-1.60
2019-02-05T15:26:27.104Z,-1.70
2019-02-05T15:28:58.181Z,-1.80
2019-02-05T15:31:29.201Z,-1.80
2019-02-05T15:34:05.570Z,-1.80
2019-02-05T15:36:36.678Z,-1.90
2019-02-05T15:39:12.458Z,-1.90
2019-02-05T15:41:43.500Z,-1.90
2019-02-05T15:44:14.000Z,-2.00
2019-02-05T15:46:44.099Z,-2.10
2019-02-05T15:49:14.445Z,-2.10
2019-02-05T15:51:44.536Z,-2.10
2019-02-05T15:54:16.560Z,-2.10
2019-02-05T15:56:47.604Z,-2.30
2019-02-05T15:59:20.897Z,-2.40
2019-02-05T16:01:51.937Z,-2.50
2019-02-05T16:04:22.081Z,-2.50
2019-02-05T16:06:52.138Z,-2.60
2019-02-05T16:09:23.237Z,-2.60
2019-02-05T16:11:55.413Z,-2.70
2019-02-05T16:14:25.516Z,-2.70
2019-02-05T16:16:56.485Z,-2.70
2019-02-05T16:19:32.597Z,-2.80
2019-02-05T16:22:02.810Z,-2.80
2019-02-05T16:24:32.877Z,-2.80
2019-02-05T16:27:05.061Z,-2.80
2019-02-05T16:29:36.136Z,-2.80
2019-02-05T16:32:17.351Z,-2.70
2019-02-05T16:34:40.032Z,-2.70
2019-02-05T16:37:10.513Z,-2.80
2019-02-05T16:39:40.609Z,-2.80
2019-02-05T16:42:13.649Z,-2.80
2019-02-05T16:44:49.621Z,-2.80
2019-02-05T16:47:19.717Z,-2.90
2019-02-05T16:49:56.378Z,-2.90
2019-02-05T16:52:28.459Z,-2.90
2019-02-05T16:55:07.581Z,-2.90
2019-02-05T16:57:37.695Z,-2.90
2019-02-05T17:00:28.352Z,-2.90
2019-02-05T17:03:01.864Z,-2.90
2019-02-05T17:05:36.161Z,-2.90
2019-02-05T17:08:08.396Z,-2.90
2019-02-05T17:10:38.488Z,-3.00
2019-02-05T17:13:11.679Z,-2.90
2019-02-05T17:15:41.404Z,-2.90
2019-02-05T17:18:22.886Z,-2.90
2019-02-05T17:20:49.086Z,-2.90
2019-02-05T17:23:20.096Z,-2.90
2019-02-05T17:25:52.172Z,-2.90
2019-02-05T17:28:22.347Z,-2.90
2019-02-05T17:30:52.424Z,-2.90
2019-02-05T17:33:22.590Z,-3.00
2019-02-05T17:36:04.077Z,-3.00
2019-02-05T17:38:40.005Z,-3.00
2019-02-05T17:41:10.113Z,-3.00
2019-02-05T17:43:40.203Z,-3.00
2019-02-05T17:46:11.586Z,-3.00
2019-02-05T17:48:41.701Z,-3.00
2019-02-05T17:51:11.822Z,-2.90
2019-02-05T17:53:41.917Z,-2.90
2019-02-05T17:56:12.949Z,-2.90
2019-02-05T17:58:44.005Z,-2.90
2019-02-05T18:01:15.007Z,-2.90
2019-02-05T18:03:46.145Z,-2.90
2019-02-05T18:06:17.145Z,-2.90
2019-02-05T18:08:48.149Z,-2.90
2019-02-05T18:11:18.241Z,-2.90
2019-02-05T18:13:48.349Z,-2.90
2019-02-05T18:16:19.495Z,-2.90
2019-02-05T18:18:49.587Z,-2.90
2019-02-05T18:21:19.684Z,-2.90
2019-02-05T18:23:49.785Z,-2.90
2019-02-05T18:26:20.917Z,-2.90
2019-02-05T18:28:51.017Z,-2.90
2019-02-05T18:31:21.101Z,-2.90
2019-02-05T18:33:51.206Z,-2.90
2019-02-05T18:36:25.213Z,-2.90
2019-02-05T18:38:56.961Z,-2.90
2019-02-05T18:41:27.055Z,-3.00
2019-02-05T18:43:57.143Z,-3.00
2019-02-05T18:46:27.245Z,-3.00
2019-02-05T18:49:05.044Z,-3.00
2019-02-05T18:51:30.284Z,-3.00
2019-02-05T18:54:02.281Z,-3.00
2019-02-05T18:56:33.533Z,-3.00
2019-02-05T18:59:06.773Z,-3.00
2019-02-05T19:01:37.851Z,-3.10
2019-02-05T19:04:09.109Z,-3.00
2019-02-05T19:06:39.193Z,-3.00
2019-02-05T19:09:12.429Z,-3.00
2019-02-05T19:11:45.457Z,-3.00
2019-02-05T19:14:16.529Z,-3.00
2019-02-05T19:16:46.621Z,-3.00
2019-02-05T19:19:16.905Z,-3.00
2019-02-05T19:21:47.405Z,-3.00
2019-02-05T19:24:21.037Z,-3.00
2019-02-05T19:26:51.132Z,-3.00
2019-02-05T19:29:21.213Z,-3.00
2019-02-05T19:31:53.517Z,-3.00
2019-02-05T19:34:25.573Z,-3.00
2019-02-05T19:36:55.681Z,-3.10
2019-02-05T19:39:26.053Z,-3.10
2019-02-05T19:41:57.069Z,-3.10
2019-02-05T19:44:32.111Z,-3.10
2019-02-05T19:47:03.179Z,-3.20
2019-02-05T19:49:35.437Z,-3.20
2019-02-05T19:52:09.518Z,-3.20
2019-02-05T19:54:40.549Z,-3.30
2019-02-05T19:57:12.539Z,-3.30
2019-02-05T19:59:43.033Z,-3.30
2019-02-05T20:02:15.109Z,-3.30
2019-02-05T20:04:45.205Z,-3.30
2019-02-05T20:07:15.297Z,-3.40
2019-02-05T20:09:45.389Z,-3.40
2019-02-05T20:12:15.593Z,-3.50
2019-02-05T20:14:55.013Z,-3.50
2019-02-05T20:17:25.117Z,-3.60
2019-02-05T20:19:55.197Z,-3.80
2019-02-05T20:22:29.178Z,-3.90
2019-02-05T20:24:59.517Z,-4.00
2019-02-05T20:27:38.925Z,-4.10
2019-02-05T20:30:25.429Z,-4.20
2019-02-05T20:32:55.680Z,-4.20
2019-02-05T20:35:34.582Z,-4.20
2019-02-05T20:38:05.850Z,-4.20
2019-02-05T20:40:36.857Z,-4.10
2019-02-05T20:43:18.039Z,-4.00
2019-02-05T20:46:09.393Z,-4.00
2019-02-05T20:48:39.502Z,-4.00
2019-02-05T20:51:09.714Z,-3.90
2019-02-05T20:53:48.733Z,-3.90
2019-02-05T20:56:19.761Z,-3.90
2019-02-05T20:58:49.883Z,-4.00
2019-02-05T21:01:19.993Z,-4.00
2019-02-05T21:04:00.930Z,-4.10
2019-02-05T21:06:23.141Z,-4.10
2019-02-05T21:08:53.311Z,-4.10
2019-02-05T21:11:23.414Z,-4.10
2019-02-05T21:14:03.670Z,-4.10
2019-02-05T21:16:33.993Z,-4.20
2019-02-05T21:19:04.161Z,-4.20
2019-02-05T21:21:35.162Z,-4.20
2019-02-05T21:24:06.429Z,-4.20
2019-02-05T21:26:36.525Z,-4.20
2019-02-05T21:29:07.722Z,-4.30
2019-02-05T21:31:38.049Z,-4.30
2019-02-05T21:34:15.277Z,-4.40
2019-02-05T21:36:39.971Z,-4.40
2019-02-05T21:39:11.349Z,-4.40
2019-02-05T21:41:41.463Z,-4.40
2019-02-05T21:44:13.497Z,-4.50
2019-02-05T21:46:49.486Z,-4.50
2019-02-05T21:49:19.567Z,-4.60
2019-02-05T21:51:51.976Z,-4.70
2019-02-05T21:54:23.003Z,-4.70
2019-02-05T21:56:59.143Z,-4.70
2019-02-05T21:59:29.246Z,-4.80
2019-02-05T22:01:59.385Z,-4.80
2019-02-05T22:04:37.551Z,-4.80
2019-02-05T22:07:08.598Z,-4.80
2019-02-05T22:09:38.798Z,-4.70
2019-02-05T22:12:18.922Z,-4.70
2019-02-05T22:14:49.033Z,-4.70
2019-02-05T22:17:19.501Z,-4.70
2019-02-05T22:19:49.662Z,-4.70
2019-02-05T22:22:19.763Z,-4.70
2019-02-05T22:24:50.762Z,-4.80
2019-02-05T22:27:28.033Z,-4.80
2019-02-05T22:29:58.125Z,-4.80
2019-02-05T22:32:28.389Z,-4.80
2019-02-05T22:35:02.221Z,-4.80
2019-02-05T22:37:33.346Z,-4.80
2019-02-05T22:40:05.953Z,-4.80
2019-02-05T22:42:36.042Z,-4.80
2019-02-05T22:45:20.501Z,-4.80
2019-02-05T22:47:50.654Z,-4.80
2019-02-05T22:50:32.997Z,-4.80
2019-02-05T22:53:06.893Z,-4.80
2019-02-05T22:55:37.882Z,-4.80
2019-02-05T22:58:10.418Z,-4.80
2019-02-05T23:00:48.281Z,-4.80
2019-02-05T23:03:31.329Z,-4.80
2019-02-05T23:06:37.382Z,-4.80
2019-02-05T23:09:27.513Z,-4.80
2019-02-05T23:12:18.395Z,-4.80
2019-02-05T23:15:02.317Z,-4.90
2019-02-05T23:17:33.378Z,-4.90
2019-02-05T23:20:05.097Z,-4.90
2019-02-05T23:22:35.186Z,-4.90
2019-02-05T23:25:07.334Z,-4.90
2019-02-05T23:27:45.087Z,-4.90
2019-02-05T23:30:21.966Z,-4.90
2019-02-05T23:32:58.965Z,-4.90
2019-02-05T23:35:41.526Z,-4.90
2019-02-05T23:38:13.009Z,-4.90
2019-02-05T23:40:46.234Z,-4.90
2019-02-05T23:43:17.261Z,-4.90
2019-02-05T23:46:00.610Z,-5.00
2019-02-05T23:48:19.706Z,-4.90
2019-02-05T23:50:55.713Z,-5.00
2019-02-05T23:53:25.835Z,-5.00
2019-02-05T23:55:57.958Z,-5.00
2019-02-05T23:58:38.787Z,-5.00
